sensor_id;sensor_type;location;lat;lon;timestamp;P1;durP1;ratioP1;P2;durP2;ratioP2
49440;SDS011;35317;51.978;6.296;2024-01-25T00:04:41;32.28;;;4.18;;
49440;SDS011;35317;51.978;6.296;2024-01-25T00:09:42;24.75;;;3.83;;
49440;SDS011;35317;51.978;6.296;2024-01-25T00:14:42;31.38;;;4.22;;
49440;SDS011;35317;51.978;6.296;2024-01-25T00:19:44;22.45;;;4.03;;
49440;SDS011;35317;51.978;6.296;2024-01-25T00:24:44;24.63;;;3.83;;
49440;SDS011;35317;51.978;6.296;2024-01-25T00:29:45;26.67;;;4.28;;
49440;SDS011;35317;51.978;6.296;2024-01-25T00:34:46;22.67;;;3.70;;
49440;SDS011;35317;51.978;6.296;2024-01-25T00:39:47;33.65;;;4.88;;
49440;SDS011;35317;51.978;6.296;2024-01-25T00:44:49;42.22;;;4.93;;
49440;SDS011;35317;51.978;6.296;2024-01-25T00:49:50;38.97;;;4.93;;
49440;SDS011;35317;51.978;6.296;2024-01-25T00:54:51;32.33;;;4.10;;
49440;SDS011;35317;51.978;6.296;2024-01-25T00:59:52;26.00;;;3.00;;
49440;SDS011;35317;51.978;6.296;2024-01-25T01:04:53;29.90;;;3.17;;
49440;SDS011;35317;51.978;6.296;2024-01-25T01:09:54;19.70;;;3.47;;
49440;SDS011;35317;51.978;6.296;2024-01-25T01:14:55;33.08;;;3.83;;
49440;SDS011;35317;51.978;6.296;2024-01-25T01:19:56;29.65;;;3.78;;
49440;SDS011;35317;51.978;6.296;2024-01-25T01:24:57;37.30;;;3.58;;
49440;SDS011;35317;51.978;6.296;2024-01-25T01:29:57;27.00;;;4.00;;
49440;SDS011;35317;51.978;6.296;2024-01-25T01:34:58;34.28;;;4.43;;
49440;SDS011;35317;51.978;6.296;2024-01-25T01:39:59;25.75;;;3.00;;
49440;SDS011;35317;51.978;6.296;2024-01-25T01:45:00;31.13;;;3.53;;
49440;SDS011;35317;51.978;6.296;2024-01-25T01:50:01;27.63;;;3.53;;
49440;SDS011;35317;51.978;6.296;2024-01-25T01:55:02;29.63;;;3.03;;
49440;SDS011;35317;51.978;6.296;2024-01-25T02:00:04;29.45;;;3.42;;
49440;SDS011;35317;51.978;6.296;2024-01-25T02:05:09;33.20;;;3.85;;
49440;SDS011;35317;51.978;6.296;2024-01-25T02:10:11;37.03;;;4.03;;
49440;SDS011;35317;51.978;6.296;2024-01-25T02:15:12;31.30;;;3.17;;
49440;SDS011;35317;51.978;6.296;2024-01-25T02:20:12;29.88;;;3.20;;
49440;SDS011;35317;51.978;6.296;2024-01-25T02:25:13;28.73;;;2.85;;
49440;SDS011;35317;51.978;6.296;2024-01-25T02:30:14;27.60;;;3.28;;
49440;SDS011;35317;51.978;6.296;2024-01-25T02:35:15;26.85;;;3.25;;
49440;SDS011;35317;51.978;6.296;2024-01-25T02:40:16;35.53;;;3.67;;
49440;SDS011;35317;51.978;6.296;2024-01-25T02:45:17;29.77;;;3.75;;
49440;SDS011;35317;51.978;6.296;2024-01-25T02:50:17;31.00;;;3.00;;
49440;SDS011;35317;51.978;6.296;2024-01-25T02:55:19;21.13;;;2.55;;
49440;SDS011;35317;51.978;6.296;2024-01-25T03:00:19;22.60;;;2.85;;
49440;SDS011;35317;51.978;6.296;2024-01-25T03:05:20;22.38;;;2.65;;
49440;SDS011;35317;51.978;6.296;2024-01-25T03:10:23;28.85;;;2.97;;
49440;SDS011;35317;51.978;6.296;2024-01-25T03:15:24;26.33;;;3.30;;
49440;SDS011;35317;51.978;6.296;2024-01-25T03:20:24;19.45;;;2.97;;
49440;SDS011;35317;51.978;6.296;2024-01-25T03:25:25;22.42;;;3.40;;
49440;SDS011;35317;51.978;6.296;2024-01-25T03:30:26;26.45;;;3.40;;
49440;SDS011;35317;51.978;6.296;2024-01-25T03:35:27;28.38;;;2.90;;
49440;SDS011;35317;51.978;6.296;2024-01-25T03:40:27;24.40;;;3.60;;
49440;SDS011;35317;51.978;6.296;2024-01-25T03:45:28;23.77;;;3.25;;
49440;SDS011;35317;51.978;6.296;2024-01-25T03:50:30;24.65;;;3.45;;
49440;SDS011;35317;51.978;6.296;2024-01-25T03:55:31;27.83;;;4.15;;
49440;SDS011;35317;51.978;6.296;2024-01-25T04:00:32;29.77;;;3.75;;
49440;SDS011;35317;51.978;6.296;2024-01-25T04:05:32;22.13;;;3.08;;
49440;SDS011;35317;51.978;6.296;2024-01-25T04:10:33;25.70;;;3.53;;
49440;SDS011;35317;51.978;6.296;2024-01-25T04:15:34;27.63;;;3.05;;
49440;SDS011;35317;51.978;6.296;2024-01-25T04:20:35;33.30;;;4.20;;
49440;SDS011;35317;51.978;6.296;2024-01-25T04:25:36;22.30;;;3.72;;
49440;SDS011;35317;51.978;6.296;2024-01-25T04:30:37;30.00;;;3.50;;
49440;SDS011;35317;51.978;6.296;2024-01-25T04:35:38;25.90;;;3.80;;
49440;SDS011;35317;51.978;6.296;2024-01-25T04:40:38;26.92;;;2.80;;
49440;SDS011;35317;51.978;6.296;2024-01-25T04:45:39;36.53;;;4.07;;
49440;SDS011;35317;51.978;6.296;2024-01-25T04:50:40;32.13;;;5.10;;
49440;SDS011;35317;51.978;6.296;2024-01-25T04:55:41;31.83;;;3.00;;
49440;SDS011;35317;51.978;6.296;2024-01-25T05:00:42;34.67;;;4.05;;
49440;SDS011;35317;51.978;6.296;2024-01-25T05:05:43;34.72;;;3.85;;
49440;SDS011;35317;51.978;6.296;2024-01-25T05:10:43;28.70;;;3.38;;
49440;SDS011;35317;51.978;6.296;2024-01-25T05:15:44;37.00;;;3.20;;
49440;SDS011;35317;51.978;6.296;2024-01-25T05:20:45;33.47;;;3.30;;
49440;SDS011;35317;51.978;6.296;2024-01-25T05:25:45;38.63;;;3.50;;
49440;SDS011;35317;51.978;6.296;2024-01-25T05:30:47;41.97;;;3.85;;
49440;SDS011;35317;51.978;6.296;2024-01-25T05:35:47;33.80;;;3.72;;
49440;SDS011;35317;51.978;6.296;2024-01-25T05:40:48;37.22;;;4.38;;
49440;SDS011;35317;51.978;6.296;2024-01-25T05:45:49;25.15;;;3.70;;
49440;SDS011;35317;51.978;6.296;2024-01-25T05:50:50;32.03;;;3.88;;
49440;SDS011;35317;51.978;6.296;2024-01-25T05:55:51;28.70;;;3.90;;
49440;SDS011;35317;51.978;6.296;2024-01-25T06:00:51;33.38;;;3.13;;
49440;SDS011;35317;51.978;6.296;2024-01-25T06:05:52;31.90;;;3.80;;
49440;SDS011;35317;51.978;6.296;2024-01-25T06:10:53;32.60;;;4.18;;
49440;SDS011;35317;51.978;6.296;2024-01-25T06:15:54;36.50;;;5.03;;
49440;SDS011;35317;51.978;6.296;2024-01-25T06:20:55;33.80;;;4.25;;
49440;SDS011;35317;51.978;6.296;2024-01-25T06:25:55;29.88;;;3.55;;
49440;SDS011;35317;51.978;6.296;2024-01-25T06:30:56;30.33;;;3.90;;
49440;SDS011;35317;51.978;6.296;2024-01-25T06:35:57;31.13;;;4.80;;
49440;SDS011;35317;51.978;6.296;2024-01-25T06:40:58;46.83;;;4.75;;
49440;SDS011;35317;51.978;6.296;2024-01-25T06:45:59;28.13;;;3.55;;
49440;SDS011;35317;51.978;6.296;2024-01-25T06:51:00;36.97;;;4.60;;
49440;SDS011;35317;51.978;6.296;2024-01-25T06:56:01;31.55;;;5.43;;
49440;SDS011;35317;51.978;6.296;2024-01-25T07:01:02;21.15;;;3.63;;
49440;SDS011;35317;51.978;6.296;2024-01-25T07:06:04;35.15;;;5.55;;
49440;SDS011;35317;51.978;6.296;2024-01-25T07:11:05;41.83;;;5.43;;
49440;SDS011;35317;51.978;6.296;2024-01-25T07:16:06;44.88;;;4.82;;
49440;SDS011;35317;51.978;6.296;2024-01-25T07:21:07;30.00;;;5.20;;
49440;SDS011;35317;51.978;6.296;2024-01-25T07:26:08;41.00;;;5.35;;
49440;SDS011;35317;51.978;6.296;2024-01-25T07:31:08;43.10;;;4.55;;
49440;SDS011;35317;51.978;6.296;2024-01-25T07:36:09;45.42;;;5.35;;
49440;SDS011;35317;51.978;6.296;2024-01-25T07:41:10;37.72;;;5.10;;
49440;SDS011;35317;51.978;6.296;2024-01-25T07:46:11;30.88;;;5.82;;
49440;SDS011;35317;51.978;6.296;2024-01-25T07:51:14;46.28;;;5.78;;
49440;SDS011;35317;51.978;6.296;2024-01-25T07:56:15;44.42;;;6.50;;
49440;SDS011;35317;51.978;6.296;2024-01-25T08:01:19;48.03;;;5.40;;
49440;SDS011;35317;51.978;6.296;2024-01-25T08:06:21;45.67;;;6.03;;
49440;SDS011;35317;51.978;6.296;2024-01-25T08:11:22;43.15;;;6.05;;
49440;SDS011;35317;51.978;6.296;2024-01-25T08:16:24;35.05;;;4.97;;
49440;SDS011;35317;51.978;6.296;2024-01-25T08:21:25;58.75;;;7.10;;
49440;SDS011;35317;51.978;6.296;2024-01-25T08:26:26;32.75;;;4.93;;
49440;SDS011;35317;51.978;6.296;2024-01-25T08:31:27;47.67;;;5.20;;
49440;SDS011;35317;51.978;6.296;2024-01-25T08:36:27;34.72;;;5.47;;
49440;SDS011;35317;51.978;6.296;2024-01-25T08:41:28;35.50;;;6.05;;
49440;SDS011;35317;51.978;6.296;2024-01-25T08:46:29;42.75;;;7.20;;
49440;SDS011;35317;51.978;6.296;2024-01-25T08:51:30;49.15;;;6.80;;
49440;SDS011;35317;51.978;6.296;2024-01-25T08:56:31;42.60;;;5.68;;
49440;SDS011;35317;51.978;6.296;2024-01-25T09:01:31;54.05;;;7.20;;
49440;SDS011;35317;51.978;6.296;2024-01-25T09:06:33;47.30;;;7.30;;
49440;SDS011;35317;51.978;6.296;2024-01-25T09:11:33;31.30;;;6.88;;
49440;SDS011;35317;51.978;6.296;2024-01-25T09:16:34;43.40;;;7.00;;
49440;SDS011;35317;51.978;6.296;2024-01-25T09:21:40;47.22;;;7.43;;
49440;SDS011;35317;51.978;6.296;2024-01-25T09:26:41;42.38;;;7.30;;
49440;SDS011;35317;51.978;6.296;2024-01-25T09:31:42;32.92;;;7.35;;
49440;SDS011;35317;51.978;6.296;2024-01-25T09:36:42;52.28;;;7.78;;
49440;SDS011;35317;51.978;6.296;2024-01-25T09:41:43;39.72;;;6.90;;
49440;SDS011;35317;51.978;6.296;2024-01-25T09:46:44;42.75;;;6.68;;
49440;SDS011;35317;51.978;6.296;2024-01-25T09:51:48;37.50;;;7.05;;
49440;SDS011;35317;51.978;6.296;2024-01-25T09:56:55;33.97;;;6.53;;
49440;SDS011;35317;51.978;6.296;2024-01-25T10:01:56;39.47;;;5.90;;
49440;SDS011;35317;51.978;6.296;2024-01-25T10:06:58;33.35;;;6.25;;
49440;SDS011;35317;51.978;6.296;2024-01-25T10:11:59;33.47;;;6.72;;
49440;SDS011;35317;51.978;6.296;2024-01-25T10:17:00;43.58;;;7.25;;
49440;SDS011;35317;51.978;6.296;2024-01-25T10:22:01;28.35;;;5.78;;
49440;SDS011;35317;51.978;6.296;2024-01-25T10:27:09;44.15;;;6.57;;
49440;SDS011;35317;51.978;6.296;2024-01-25T10:32:11;34.55;;;6.10;;
49440;SDS011;35317;51.978;6.296;2024-01-25T10:37:13;30.80;;;5.57;;
49440;SDS011;35317;51.978;6.296;2024-01-25T10:42:15;44.15;;;6.40;;
49440;SDS011;35317;51.978;6.296;2024-01-25T10:47:16;35.33;;;6.28;;
49440;SDS011;35317;51.978;6.296;2024-01-25T10:52:17;35.42;;;6.70;;
49440;SDS011;35317;51.978;6.296;2024-01-25T10:57:19;40.22;;;7.07;;
49440;SDS011;35317;51.978;6.296;2024-01-25T11:02:20;38.25;;;7.55;;
49440;SDS011;35317;51.978;6.296;2024-01-25T11:07:21;23.52;;;6.18;;
49440;SDS011;35317;51.978;6.296;2024-01-25T11:12:21;34.38;;;6.00;;
49440;SDS011;35317;51.978;6.296;2024-01-25T11:17:22;32.65;;;5.57;;
49440;SDS011;35317;51.978;6.296;2024-01-25T11:22:23;22.40;;;5.38;;
49440;SDS011;35317;51.978;6.296;2024-01-25T11:27:35;33.08;;;7.50;;
49440;SDS011;35317;51.978;6.296;2024-01-25T11:32:36;37.47;;;6.40;;
49440;SDS011;35317;51.978;6.296;2024-01-25T11:37:37;40.58;;;7.47;;
49440;SDS011;35317;51.978;6.296;2024-01-25T11:42:39;32.63;;;6.78;;
49440;SDS011;35317;51.978;6.296;2024-01-25T11:47:42;30.95;;;6.93;;
49440;SDS011;35317;51.978;6.296;2024-01-25T11:52:43;31.38;;;6.90;;
49440;SDS011;35317;51.978;6.296;2024-01-25T11:57:44;33.33;;;6.47;;
49440;SDS011;35317;51.978;6.296;2024-01-25T12:02:45;42.63;;;7.47;;
49440;SDS011;35317;51.978;6.296;2024-01-25T12:07:46;44.70;;;6.82;;
49440;SDS011;35317;51.978;6.296;2024-01-25T12:12:47;37.33;;;6.97;;
49440;SDS011;35317;51.978;6.296;2024-01-25T12:17:48;47.85;;;6.63;;
49440;SDS011;35317;51.978;6.296;2024-01-25T12:22:49;28.50;;;6.07;;
49440;SDS011;35317;51.978;6.296;2024-01-25T12:27:50;35.22;;;5.93;;
49440;SDS011;35317;51.978;6.296;2024-01-25T12:32:51;38.55;;;5.80;;
49440;SDS011;35317;51.978;6.296;2024-01-25T12:37:51;31.35;;;4.93;;
49440;SDS011;35317;51.978;6.296;2024-01-25T12:42:52;31.23;;;4.53;;
49440;SDS011;35317;51.978;6.296;2024-01-25T12:47:53;29.35;;;4.28;;
49440;SDS011;35317;51.978;6.296;2024-01-25T12:52:53;18.90;;;3.85;;
49440;SDS011;35317;51.978;6.296;2024-01-25T12:57:55;27.95;;;3.85;;
49440;SDS011;35317;51.978;6.296;2024-01-25T13:02:56;28.38;;;5.20;;
49440;SDS011;35317;51.978;6.296;2024-01-25T13:07:57;24.23;;;3.72;;
49440;SDS011;35317;51.978;6.296;2024-01-25T13:12:58;24.52;;;3.95;;
49440;SDS011;35317;51.978;6.296;2024-01-25T13:17:58;29.60;;;3.78;;
49440;SDS011;35317;51.978;6.296;2024-01-25T13:23:01;26.42;;;4.00;;
49440;SDS011;35317;51.978;6.296;2024-01-25T13:28:01;25.75;;;3.80;;
49440;SDS011;35317;51.978;6.296;2024-01-25T13:33:03;26.02;;;4.35;;
49440;SDS011;35317;51.978;6.296;2024-01-25T13:38:03;29.15;;;5.43;;
49440;SDS011;35317;51.978;6.296;2024-01-25T13:43:04;32.28;;;5.90;;
49440;SDS011;35317;51.978;6.296;2024-01-25T13:48:05;36.80;;;6.72;;
49440;SDS011;35317;51.978;6.296;2024-01-25T13:53:06;35.78;;;6.45;;
49440;SDS011;35317;51.978;6.296;2024-01-25T13:58:07;38.47;;;6.80;;
49440;SDS011;35317;51.978;6.296;2024-01-25T14:03:08;31.27;;;7.68;;
49440;SDS011;35317;51.978;6.296;2024-01-25T14:08:08;32.40;;;8.30;;
49440;SDS011;35317;51.978;6.296;2024-01-25T14:13:09;32.53;;;8.85;;
49440;SDS011;35317;51.978;6.296;2024-01-25T14:18:10;35.88;;;9.30;;
49440;SDS011;35317;51.978;6.296;2024-01-25T14:23:11;43.42;;;11.10;;
49440;SDS011;35317;51.978;6.296;2024-01-25T14:28:14;34.53;;;11.82;;
49440;SDS011;35317;51.978;6.296;2024-01-25T14:33:15;44.50;;;12.27;;
49440;SDS011;35317;51.978;6.296;2024-01-25T14:38:15;36.08;;;11.93;;
49440;SDS011;35317;51.978;6.296;2024-01-25T14:43:16;47.85;;;12.88;;
49440;SDS011;35317;51.978;6.296;2024-01-25T14:48:17;35.63;;;11.90;;
49440;SDS011;35317;51.978;6.296;2024-01-25T14:53:18;42.33;;;14.35;;
49440;SDS011;35317;51.978;6.296;2024-01-25T14:58:19;48.20;;;14.07;;
49440;SDS011;35317;51.978;6.296;2024-01-25T15:03:23;47.93;;;13.23;;
49440;SDS011;35317;51.978;6.296;2024-01-25T15:08:24;43.70;;;13.35;;
49440;SDS011;35317;51.978;6.296;2024-01-25T15:13:25;40.20;;;14.70;;
49440;SDS011;35317;51.978;6.296;2024-01-25T15:18:26;49.13;;;13.32;;
49440;SDS011;35317;51.978;6.296;2024-01-25T15:23:26;58.67;;;14.40;;
49440;SDS011;35317;51.978;6.296;2024-01-25T15:28:29;53.78;;;14.63;;
49440;SDS011;35317;51.978;6.296;2024-01-25T15:33:30;53.85;;;15.13;;
49440;SDS011;35317;51.978;6.296;2024-01-25T15:38:31;49.80;;;14.60;;
49440;SDS011;35317;51.978;6.296;2024-01-25T15:43:32;46.83;;;13.32;;
49440;SDS011;35317;51.978;6.296;2024-01-25T15:48:34;44.50;;;12.88;;
49440;SDS011;35317;51.978;6.296;2024-01-25T15:53:35;45.03;;;13.25;;
49440;SDS011;35317;51.978;6.296;2024-01-25T15:58:35;42.40;;;13.02;;
49440;SDS011;35317;51.978;6.296;2024-01-25T16:03:36;47.45;;;13.10;;
49440;SDS011;35317;51.978;6.296;2024-01-25T16:08:39;49.65;;;13.07;;
49440;SDS011;35317;51.978;6.296;2024-01-25T16:13:40;50.88;;;13.00;;
49440;SDS011;35317;51.978;6.296;2024-01-25T16:18:41;49.00;;;12.93;;
49440;SDS011;35317;51.978;6.296;2024-01-25T16:23:41;51.00;;;12.23;;
49440;SDS011;35317;51.978;6.296;2024-01-25T16:28:42;51.08;;;12.63;;
49440;SDS011;35317;51.978;6.296;2024-01-25T16:33:43;47.63;;;11.82;;
49440;SDS011;35317;51.978;6.296;2024-01-25T16:38:44;45.20;;;12.90;;
49440;SDS011;35317;51.978;6.296;2024-01-25T16:43:45;46.97;;;13.60;;
49440;SDS011;35317;51.978;6.296;2024-01-25T16:48:46;55.25;;;14.50;;
49440;SDS011;35317;51.978;6.296;2024-01-25T16:53:46;48.10;;;12.18;;
49440;SDS011;35317;51.978;6.296;2024-01-25T16:58:47;52.65;;;12.73;;
49440;SDS011;35317;51.978;6.296;2024-01-25T17:03:48;45.53;;;12.07;;
49440;SDS011;35317;51.978;6.296;2024-01-25T17:08:49;48.63;;;11.80;;
49440;SDS011;35317;51.978;6.296;2024-01-25T17:13:49;43.63;;;11.40;;
49440;SDS011;35317;51.978;6.296;2024-01-25T17:18:50;48.40;;;11.68;;
49440;SDS011;35317;51.978;6.296;2024-01-25T17:23:51;53.95;;;11.73;;
49440;SDS011;35317;51.978;6.296;2024-01-25T17:28:52;47.88;;;11.93;;
49440;SDS011;35317;51.978;6.296;2024-01-25T17:33:54;50.08;;;11.48;;
49440;SDS011;35317;51.978;6.296;2024-01-25T17:38:55;54.65;;;13.65;;
49440;SDS011;35317;51.978;6.296;2024-01-25T17:43:55;51.70;;;11.73;;
49440;SDS011;35317;51.978;6.296;2024-01-25T17:48:57;50.25;;;13.48;;
49440;SDS011;35317;51.978;6.296;2024-01-25T17:53:58;43.45;;;12.30;;
49440;SDS011;35317;51.978;6.296;2024-01-25T17:58:58;52.88;;;13.73;;
49440;SDS011;35317;51.978;6.296;2024-01-25T18:04:01;60.75;;;12.88;;
49440;SDS011;35317;51.978;6.296;2024-01-25T18:09:02;52.40;;;13.13;;
49440;SDS011;35317;51.978;6.296;2024-01-25T18:14:03;71.65;;;14.65;;
49440;SDS011;35317;51.978;6.296;2024-01-25T18:19:04;48.05;;;12.98;;
49440;SDS011;35317;51.978;6.296;2024-01-25T18:24:04;48.03;;;13.40;;
49440;SDS011;35317;51.978;6.296;2024-01-25T18:29:06;55.15;;;14.25;;
49440;SDS011;35317;51.978;6.296;2024-01-25T18:34:06;51.67;;;14.45;;
49440;SDS011;35317;51.978;6.296;2024-01-25T18:39:07;51.78;;;14.40;;
49440;SDS011;35317;51.978;6.296;2024-01-25T18:44:08;47.17;;;15.32;;
49440;SDS011;35317;51.978;6.296;2024-01-25T18:49:09;43.40;;;15.02;;
49440;SDS011;35317;51.978;6.296;2024-01-25T18:54:10;45.42;;;15.20;;
49440;SDS011;35317;51.978;6.296;2024-01-25T18:59:13;47.60;;;14.32;;
49440;SDS011;35317;51.978;6.296;2024-01-25T19:04:14;55.78;;;17.05;;
49440;SDS011;35317;51.978;6.296;2024-01-25T19:09:16;47.38;;;16.90;;
49440;SDS011;35317;51.978;6.296;2024-01-25T19:14:16;56.53;;;15.50;;
49440;SDS011;35317;51.978;6.296;2024-01-25T19:19:17;62.80;;;19.48;;
49440;SDS011;35317;51.978;6.296;2024-01-25T19:24:18;58.45;;;19.13;;
49440;SDS011;35317;51.978;6.296;2024-01-25T19:29:21;52.28;;;18.48;;
49440;SDS011;35317;51.978;6.296;2024-01-25T19:34:22;57.25;;;19.48;;
49440;SDS011;35317;51.978;6.296;2024-01-25T19:39:23;67.55;;;20.13;;
49440;SDS011;35317;51.978;6.296;2024-01-25T19:44:24;61.90;;;20.67;;
49440;SDS011;35317;51.978;6.296;2024-01-25T19:49:25;56.97;;;20.13;;
49440;SDS011;35317;51.978;6.296;2024-01-25T19:54:28;56.90;;;20.88;;
49440;SDS011;35317;51.978;6.296;2024-01-25T19:59:29;67.65;;;19.80;;
49440;SDS011;35317;51.978;6.296;2024-01-25T20:04:30;53.13;;;19.02;;
49440;SDS011;35317;51.978;6.296;2024-01-25T20:09:32;54.72;;;19.05;;
49440;SDS011;35317;51.978;6.296;2024-01-25T20:14:33;54.38;;;18.48;;
49440;SDS011;35317;51.978;6.296;2024-01-25T20:19:34;50.28;;;18.63;;
49440;SDS011;35317;51.978;6.296;2024-01-25T20:24:34;55.13;;;18.65;;
49440;SDS011;35317;51.978;6.296;2024-01-25T20:29:35;45.22;;;18.80;;
49440;SDS011;35317;51.978;6.296;2024-01-25T20:34:36;55.17;;;19.92;;
49440;SDS011;35317;51.978;6.296;2024-01-25T20:39:37;54.50;;;18.33;;
49440;SDS011;35317;51.978;6.296;2024-01-25T20:44:38;50.08;;;17.08;;
49440;SDS011;35317;51.978;6.296;2024-01-25T20:49:38;53.42;;;17.63;;
49440;SDS011;35317;51.978;6.296;2024-01-25T20:54:39;45.70;;;17.98;;
49440;SDS011;35317;51.978;6.296;2024-01-25T20:59:40;40.97;;;16.27;;
49440;SDS011;35317;51.978;6.296;2024-01-25T21:04:41;45.63;;;17.23;;
49440;SDS011;35317;51.978;6.296;2024-01-25T21:09:43;41.30;;;16.55;;
49440;SDS011;35317;51.978;6.296;2024-01-25T21:14:44;46.10;;;16.70;;
49440;SDS011;35317;51.978;6.296;2024-01-25T21:19:46;47.17;;;15.95;;
49440;SDS011;35317;51.978;6.296;2024-01-25T21:24:47;45.97;;;16.67;;
49440;SDS011;35317;51.978;6.296;2024-01-25T21:29:47;41.28;;;16.15;;
49440;SDS011;35317;51.978;6.296;2024-01-25T21:34:48;44.55;;;15.85;;
49440;SDS011;35317;51.978;6.296;2024-01-25T21:39:49;42.53;;;14.80;;
49440;SDS011;35317;51.978;6.296;2024-01-25T21:44:50;39.53;;;15.82;;
49440;SDS011;35317;51.978;6.296;2024-01-25T21:49:51;47.92;;;17.45;;
49440;SDS011;35317;51.978;6.296;2024-01-25T21:54:52;42.05;;;16.50;;
49440;SDS011;35317;51.978;6.296;2024-01-25T21:59:53;45.92;;;17.10;;
49440;SDS011;35317;51.978;6.296;2024-01-25T22:04:53;53.00;;;19.65;;
49440;SDS011;35317;51.978;6.296;2024-01-25T22:09:54;52.53;;;19.95;;
49440;SDS011;35317;51.978;6.296;2024-01-25T22:14:55;46.38;;;19.45;;
49440;SDS011;35317;51.978;6.296;2024-01-25T22:19:55;60.95;;;21.02;;
49440;SDS011;35317;51.978;6.296;2024-01-25T22:24:56;50.60;;;20.63;;
49440;SDS011;35317;51.978;6.296;2024-01-25T22:29:57;46.92;;;20.02;;
49440;SDS011;35317;51.978;6.296;2024-01-25T22:34:58;44.88;;;19.95;;
49440;SDS011;35317;51.978;6.296;2024-01-25T22:39:58;44.25;;;19.35;;
49440;SDS011;35317;51.978;6.296;2024-01-25T22:44:59;49.38;;;20.35;;
49440;SDS011;35317;51.978;6.296;2024-01-25T22:50:00;45.28;;;20.58;;
49440;SDS011;35317;51.978;6.296;2024-01-25T22:55:00;45.15;;;20.00;;
49440;SDS011;35317;51.978;6.296;2024-01-25T23:00:02;50.10;;;19.85;;
49440;SDS011;35317;51.978;6.296;2024-01-25T23:05:10;50.08;;;20.33;;
49440;SDS011;35317;51.978;6.296;2024-01-25T23:10:11;48.25;;;21.05;;
49440;SDS011;35317;51.978;6.296;2024-01-25T23:15:13;46.40;;;20.17;;
49440;SDS011;35317;51.978;6.296;2024-01-25T23:20:14;43.92;;;19.45;;
49440;SDS011;35317;51.978;6.296;2024-01-25T23:25:15;43.28;;;19.08;;
49440;SDS011;35317;51.978;6.296;2024-01-25T23:30:15;47.20;;;20.58;;
49440;SDS011;35317;51.978;6.296;2024-01-25T23:35:17;48.05;;;20.83;;
49440;SDS011;35317;51.978;6.296;2024-01-25T23:40:18;47.63;;;19.45;;
49440;SDS011;35317;51.978;6.296;2024-01-25T23:45:19;54.20;;;20.83;;
49440;SDS011;35317;51.978;6.296;2024-01-25T23:50:23;52.70;;;20.20;;
49440;SDS011;35317;51.978;6.296;2024-01-25T23:55:24;48.05;;;20.08;;
